Time;durP1;ratioP1;P1;durP2;ratioP2;P2;SDS_P1;SDS_P2;PMS_P1;PMS_P2;Temp;Humidity;BMP_temperature;BMP_pressure;BME280_temperature;BME280_humidity;BME280_pressure;Samples;Min_cycle;Max_cycle;Signal;HPM_P1;HPM_P2
2023/01/31 00:01:04;;;;;;;19.70;1.70;;;;;;;3.02;94.57;99660.51;106557;1268;22535;-56
2023/01/31 00:03:35;;;;;;;20.40;1.90;;;;;;;3.04;94.31;99656.09;106564;1272;22535;-55
2023/01/31 00:06:19;;;;;;;20.10;1.80;;;;;;;3.05;94.38;99657.34;106565;1274;23125;-58
2023/01/31 00:08:51;;;;;;;18.20;1.40;;;;;;;3.07;94.13;99664.16;106581;1274;22605;-55
2023/01/31 00:11:24;;;;;;;17.60;1.50;;;;;;;3.08;93.91;99665.05;106524;1272;22747;-55
2023/01/31 00:13:55;;;;;;;15.90;1.40;;;;;;;3.08;93.79;99671.80;106552;1272;24241;-57
2023/01/31 00:16:27;;;;;;;15.70;1.80;;;;;;;3.10;93.62;99674.42;106678;1272;25352;-58
2023/01/31 00:18:58;;;;;;;12.20;1.90;;;;;;;3.11;93.63;99669.44;106884;1274;25263;-58
2023/01/31 00:21:30;;;;;;;19.40;1.60;;;;;;;3.11;93.53;99673.36;106595;1267;22656;-56
2023/01/31 00:24:04;;;;;;;20.40;1.70;;;;;;;3.12;93.42;99681.46;106563;1274;25368;-57
2023/01/31 00:26:36;;;;;;;18.60;1.50;;;;;;;3.12;93.09;99683.11;106666;1274;24246;-54
2023/01/31 00:29:07;;;;;;;19.00;1.60;;;;;;;3.13;93.08;99686.64;106535;1274;22529;-55
2023/01/31 00:31:37;;;;;;;20.70;2.30;;;;;;;3.13;92.90;99685.77;106527;1272;22576;-55
2023/01/31 00:34:08;;;;;;;23.40;2.20;;;;;;;3.13;92.98;99688.91;106548;1274;22546;-57
2023/01/31 00:36:39;;;;;;;16.00;1.40;;;;;;;3.13;92.66;99690.66;106491;1269;24684;-57
2023/01/31 00:39:10;;;;;;;20.40;1.60;;;;;;;3.13;92.25;99703.88;106534;1274;22771;-58
2023/01/31 00:41:41;;;;;;;17.00;1.60;;;;;;;3.14;92.33;99702.67;106558;1274;24396;-55
2023/01/31 00:44:12;;;;;;;15.60;1.30;;;;;;;3.14;92.13;99695.27;106491;1272;24279;-54
2023/01/31 00:46:42;;;;;;;21.80;1.80;;;;;;;3.15;92.11;99701.79;106525;1272;24394;-55
2023/01/31 00:49:13;;;;;;;16.60;1.20;;;;;;;3.14;92.14;99705.13;106554;1274;22523;-56
2023/01/31 00:51:44;;;;;;;29.40;3.00;;;;;;;3.14;92.03;99703.95;106516;1274;22530;-57
2023/01/31 00:54:16;;;;;;;19.50;1.70;;;;;;;3.11;91.98;99703.45;106708;1267;24384;-57
2023/01/31 00:56:46;;;;;;;17.30;1.80;;;;;;;3.09;91.88;99700.34;106676;1274;26431;-54
2023/01/31 00:59:17;;;;;;;26.60;2.40;;;;;;;3.05;91.84;99704.59;106528;1268;24224;-56
2023/01/31 01:01:48;;;;;;;15.30;2.00;;;;;;;3.02;91.80;99705.48;106528;1274;22563;-58
2023/01/31 01:04:19;;;;;;;16.40;1.50;;;;;;;3.00;91.69;99716.03;106493;1270;24269;-54
2023/01/31 01:06:50;;;;;;;23.10;1.50;;;;;;;3.01;91.49;99714.66;106530;1274;22524;-56
2023/01/31 01:09:24;;;;;;;21.00;2.40;;;;;;;3.03;91.65;99715.78;106582;1259;24235;-54
2023/01/31 01:11:55;;;;;;;12.50;1.10;;;;;;;3.04;91.51;99719.21;106798;1274;22671;-55
2023/01/31 01:14:25;;;;;;;17.20;1.70;;;;;;;3.04;91.28;99723.71;106591;1272;25440;-55
2023/01/31 01:16:57;;;;;;;17.10;1.50;;;;;;;3.05;91.07;99722.73;106543;1269;25402;-56
2023/01/31 01:19:28;;;;;;;14.40;1.40;;;;;;;3.05;90.85;99723.60;106550;1271;22547;-55
2023/01/31 01:22:00;;;;;;;13.40;1.50;;;;;;;3.05;90.40;99736.29;106568;1270;24235;-58
2023/01/31 01:24:30;;;;;;;15.40;1.10;;;;;;;3.07;89.93;99734.50;106578;1267;22524;-57
2023/01/31 01:27:03;;;;;;;9.80;1.50;;;;;;;3.06;89.28;99740.83;106586;1274;24261;-55
2023/01/31 01:29:35;;;;;;;15.80;1.20;;;;;;;3.06;89.50;99743.19;106530;1274;22628;-56
2023/01/31 01:32:06;;;;;;;11.60;1.30;;;;;;;3.05;89.27;99732.27;106608;1273;24759;-58
2023/01/31 01:34:37;;;;;;;17.20;1.50;;;;;;;3.03;88.98;99730.75;106656;1273;22530;-59
2023/01/31 01:37:10;;;;;;;13.90;2.10;;;;;;;3.03;88.42;99729.65;106617;1272;22526;-56
2023/01/31 01:39:41;;;;;;;17.10;1.30;;;;;;;3.03;88.03;99734.92;106642;1259;24272;-56
2023/01/31 01:42:17;;;;;;;12.90;0.90;;;;;;;3.04;87.20;99745.70;106571;1266;22524;-55
2023/01/31 01:44:52;;;;;;;12.00;1.10;;;;;;;3.04;86.69;99759.23;106698;1274;22536;-58
2023/01/31 01:47:33;;;;;;;12.00;1.20;;;;;;;3.05;87.48;99770.33;106562;1274;22579;-56
2023/01/31 01:50:11;;;;;;;16.10;1.10;;;;;;;3.03;86.93;99774.32;106806;1274;22534;-57
2023/01/31 01:52:45;;;;;;;7.90;0.80;;;;;;;3.02;86.11;99781.30;106662;1259;22567;-58
2023/01/31 01:55:22;;;;;;;19.20;1.40;;;;;;;3.02;86.59;99786.89;106596;1259;22523;-54
2023/01/31 01:58:00;;;;;;;8.30;0.70;;;;;;;3.02;86.47;99789.66;106532;1269;22528;-55
2023/01/31 02:00:33;;;;;;;13.60;1.10;;;;;;;3.00;86.78;99785.30;106582;1259;25382;-55
2023/01/31 02:03:07;;;;;;;14.80;0.90;;;;;;;2.97;86.35;99784.89;106694;1274;22523;-57
2023/01/31 02:05:42;;;;;;;12.40;1.20;;;;;;;2.95;86.00;99779.21;106666;1274;22523;-57
2023/01/31 02:08:15;;;;;;;12.50;2.00;;;;;;;2.96;86.07;99788.71;106636;1274;23188;-57
2023/01/31 02:10:52;;;;;;;19.00;1.10;;;;;;;2.98;86.11;99786.23;106552;1262;22660;-56
2023/01/31 02:13:24;;;;;;;12.00;1.40;;;;;;;2.99;85.99;99795.79;106482;1275;25249;-59
2023/01/31 02:15:55;;;;;;;9.70;1.00;;;;;;;2.99;86.07;99792.02;106522;1267;22656;-57
2023/01/31 02:18:28;;;;;;;13.10;1.30;;;;;;;2.98;85.04;99794.88;106518;1260;22515;-57
2023/01/31 02:21:33;;;;;;;15.20;1.70;;;;;;;2.98;85.27;99798.13;106727;1274;22565;-55
2023/01/31 02:24:47;;;;;;;11.70;0.80;;;;;;;2.95;85.29;99803.79;106793;1269;22655;-59
2023/01/31 02:27:42;;;;;;;9.30;0.80;;;;;;;2.94;85.22;99820.20;106597;1267;22549;-55
2023/01/31 02:30:38;;;;;;;14.00;1.10;;;;;;;2.92;85.37;99822.07;106615;1275;22523;-57
2023/01/31 02:33:19;;;;;;;14.10;1.00;;;;;;;2.91;84.77;99827.23;106488;1275;25549;-58
2023/01/31 02:35:56;;;;;;;;;;;;;;;2.89;85.41;99824.45;106626;1274;22634;-57
2023/01/31 02:38:39;;;;;;;6.90;1.00;;;;;;;2.82;85.78;99831.52;106502;1259;22526;-54
2023/01/31 02:41:18;;;;;;;10.90;0.90;;;;;;;2.73;86.52;99845.77;106553;1274;25344;-58
2023/01/31 02:47:04;;;;;;;6.60;0.40;;;;;;;2.52;87.88;99865.08;106128;1279;22539;-54
2023/01/31 02:49:41;;;;;;;12.00;0.80;;;;;;;2.35;88.47;99877.61;106210;1279;22598;-57
2023/01/31 02:52:20;;;;;;;8.50;0.50;;;;;;;2.18;89.01;99877.58;106203;1265;22549;-57
2023/01/31 02:57:57;;;;;;;7.20;0.60;;;;;;;1.94;89.96;99883.67;106107;1277;22549;-56
2023/01/31 03:00:32;;;;;;;5.50;0.80;;;;;;;1.88;90.21;99882.86;106250;1265;22540;-57
2023/01/31 03:03:06;;;;;;;7.70;0.90;;;;;;;1.84;90.38;99890.69;106276;1271;22529;-56
2023/01/31 03:05:37;;;;;;;12.80;1.30;;;;;;;1.82;90.27;99899.93;106203;1279;25273;-57
2023/01/31 03:08:15;;;;;;;7.80;1.20;;;;;;;1.83;90.37;99903.44;106119;1279;22659;-53
2023/01/31 03:11:00;;;;;;;10.60;1.10;;;;;;;1.87;90.45;99905.39;106222;1274;25508;-57
2023/01/31 03:13:44;;;;;;;13.20;1.30;;;;;;;1.90;90.44;99903.36;106173;1279;22537;-56
2023/01/31 03:19:21;;;;;;;13.30;1.00;;;;;;;1.98;90.05;99905.77;106399;1274;22527;-55
2023/01/31 03:21:57;;;;;;;15.30;1.40;;;;;;;2.02;89.49;99918.88;106528;1274;22516;-54
2023/01/31 03:24:29;;;;;;;12.60;0.90;;;;;;;2.09;89.17;99924.86;106514;1267;22527;-55
2023/01/31 03:27:03;;;;;;;16.90;1.40;;;;;;;2.13;89.28;99933.66;106599;1274;23777;-58
2023/01/31 03:29:37;;;;;;;19.30;2.60;;;;;;;2.14;88.84;99937.65;106686;1259;22543;-55
2023/01/31 03:32:17;;;;;;;14.20;1.40;;;;;;;2.17;88.35;99941.50;106526;1269;22536;-57
2023/01/31 03:34:48;;;;;;;15.20;1.60;;;;;;;2.21;87.88;99957.30;106502;1267;22526;-57
2023/01/31 03:37:27;;;;;;;15.70;1.50;;;;;;;2.23;87.62;99977.10;106587;1274;25320;-57
2023/01/31 03:40:05;;;;;;;16.30;1.50;;;;;;;2.17;87.78;99962.50;106750;1269;22535;-58
2023/01/31 03:42:43;;;;;;;10.20;0.80;;;;;;;2.07;88.26;99972.09;106776;1268;24216;-56
2023/01/31 03:45:20;;;;;;;12.90;2.00;;;;;;;1.94;88.15;99957.30;106591;1260;25433;-58
2023/01/31 03:47:53;;;;;;;12.30;0.90;;;;;;;1.73;89.30;99961.38;106558;1274;22530;-58
2023/01/31 03:50:27;;;;;;;10.60;1.30;;;;;;;1.57;89.68;99960.55;106557;1274;22740;-58
2023/01/31 03:53:03;;;;;;;11.90;0.60;;;;;;;1.46;89.94;99950.39;106573;1274;25349;-56
2023/01/31 03:55:40;;;;;;;10.10;0.90;;;;;;;1.39;90.83;99963.89;106562;1267;22948;-54
2023/01/31 03:58:13;;;;;;;11.40;1.10;;;;;;;1.33;91.24;99971.09;106851;1272;180098;-57
2023/01/31 04:00:47;;;;;;;14.50;1.20;;;;;;;1.28;92.12;99989.02;106684;1266;22661;-56
2023/01/31 04:03:24;;;;;;;11.50;0.80;;;;;;;1.25;91.90;99977.77;106783;1274;23445;-55
2023/01/31 04:05:55;;;;;;;9.90;0.80;;;;;;;1.27;91.38;99977.55;106755;1274;25354;-57
2023/01/31 04:08:26;;;;;;;10.60;0.80;;;;;;;1.33;91.20;99980.45;106687;1274;25240;-57
2023/01/31 04:10:59;;;;;;;13.30;1.10;;;;;;;1.39;90.92;99981.59;106726;1264;22640;-57
2023/01/31 04:13:30;;;;;;;14.10;1.10;;;;;;;1.45;90.31;99983.82;106643;1263;23958;-57
2023/01/31 04:16:02;;;;;;;13.50;1.70;;;;;;;1.52;90.02;99987.52;106642;1263;24239;-55
2023/01/31 04:18:32;;;;;;;10.50;1.30;;;;;;;1.57;89.58;99992.14;106667;1264;24264;-57
2023/01/31 04:21:04;;;;;;;15.20;1.50;;;;;;;1.67;88.15;99990.67;106557;1250;22544;-56
2023/01/31 04:23:34;;;;;;;13.60;1.10;;;;;;;1.76;88.06;99996.63;106557;1274;22526;-55
2023/01/31 04:26:06;;;;;;;21.20;2.50;;;;;;;1.82;87.41;99995.94;106504;1267;22640;-56
2023/01/31 04:28:36;;;;;;;16.00;1.00;;;;;;;1.88;86.75;100004.23;106628;1268;22976;-58
2023/01/31 04:31:07;;;;;;;9.10;1.00;;;;;;;1.94;86.71;100005.05;106818;1272;22647;-60
2023/01/31 04:33:38;;;;;;;14.00;0.90;;;;;;;1.98;85.85;100000.30;106568;1271;22527;-56
2023/01/31 04:36:11;;;;;;;13.80;0.90;;;;;;;2.02;85.59;99999.02;106532;1269;25490;-54
2023/01/31 04:38:42;;;;;;;11.70;1.10;;;;;;;2.08;85.63;100001.41;106719;1274;22534;-55
2023/01/31 04:41:12;;;;;;;12.70;2.50;;;;;;;2.11;85.63;100002.39;106533;1274;22532;-56
2023/01/31 04:43:43;;;;;;;12.90;1.50;;;;;;;2.13;84.91;100004.70;106678;1268;22582;-55
2023/01/31 04:46:14;;;;;;;12.70;1.10;;;;;;;2.14;84.83;100009.94;106582;1275;25405;-57
2023/01/31 04:48:45;;;;;;;10.80;0.90;;;;;;;2.18;84.07;100021.89;106462;1269;25288;-55
2023/01/31 04:51:16;;;;;;;13.80;1.00;;;;;;;2.21;83.82;100022.29;106545;1267;25317;-54
2023/01/31 04:53:47;;;;;;;10.00;1.10;;;;;;;2.23;84.20;100031.45;106647;1274;22538;-56
2023/01/31 04:56:17;;;;;;;12.90;1.10;;;;;;;2.25;84.04;100034.33;106524;1259;22533;-56
2023/01/31 04:58:48;;;;;;;19.60;1.30;;;;;;;2.25;84.24;100036.45;106714;1268;25483;-58
2023/01/31 05:01:19;;;;;;;9.70;1.00;;;;;;;2.25;84.16;100030.39;106573;1274;24985;-54
2023/01/31 05:03:50;;;;;;;11.60;1.00;;;;;;;2.25;84.27;100030.16;106706;1274;24269;-56
2023/01/31 05:06:21;;;;;;;13.90;1.00;;;;;;;2.26;83.90;100030.75;106554;1269;22527;-56
2023/01/31 05:08:53;;;;;;;12.30;1.40;;;;;;;2.26;83.68;100029.42;106593;1273;23061;-58
2023/01/31 05:11:24;;;;;;;13.10;1.10;;;;;;;2.27;83.88;100032.31;106628;1273;25609;-55
2023/01/31 05:13:55;;;;;;;7.20;0.70;;;;;;;2.26;83.53;100032.02;106533;1273;24404;-56
2023/01/31 05:16:25;;;;;;;13.70;1.00;;;;;;;2.25;83.38;100029.52;106530;1270;22518;-57
2023/01/31 05:18:56;;;;;;;16.20;1.00;;;;;;;2.24;83.13;100030.24;106535;1273;22526;-58
2023/01/31 05:21:27;;;;;;;17.30;2.30;;;;;;;2.24;83.55;100040.71;106558;1267;25335;-58
2023/01/31 05:23:58;;;;;;;11.90;1.00;;;;;;;2.23;83.53;100038.14;106582;1274;22747;-63
2023/01/31 05:26:29;;;;;;;13.00;0.80;;;;;;;2.21;83.52;100041.25;106863;1250;24216;-60
2023/01/31 05:29:02;;;;;;;15.10;1.50;;;;;;;2.20;83.61;100053.41;106554;1274;23034;-58
2023/01/31 05:31:33;;;;;;;12.00;1.10;;;;;;;2.19;84.03;100058.29;106592;1272;22758;-57
2023/01/31 05:34:03;;;;;;;9.40;1.00;;;;;;;2.18;84.08;100064.38;106558;1272;24263;-59
2023/01/31 05:36:34;;;;;;;19.10;1.70;;;;;;;2.17;83.88;100063.78;106552;1266;24233;-59
2023/01/31 05:39:05;;;;;;;10.40;2.10;;;;;;;2.17;83.84;100069.45;106569;1274;22578;-60
2023/01/31 05:41:36;;;;;;;14.10;1.50;;;;;;;2.17;84.24;100075.18;106651;1274;23040;-66
2023/01/31 05:44:08;;;;;;;11.30;1.00;;;;;;;2.16;84.26;100078.98;106507;1261;22537;-58
2023/01/31 05:46:39;;;;;;;11.50;1.00;;;;;;;2.14;84.22;100084.13;107781;1259;26539;-59
2023/01/31 05:49:10;;;;;;;19.60;1.40;;;;;;;2.14;84.20;100089.95;106525;1272;22529;-58
2023/01/31 05:51:41;;;;;;;9.80;1.60;;;;;;;2.14;84.42;100095.16;106614;1273;22526;-59
2023/01/31 05:54:13;;;;;;;10.60;1.40;;;;;;;2.14;84.43;100105.77;106645;1259;23929;-60
2023/01/31 05:56:44;;;;;;;14.00;1.20;;;;;;;2.14;84.52;100112.79;106706;1274;22576;-59
2023/01/31 05:59:15;;;;;;;11.80;0.80;;;;;;;2.14;84.45;100111.52;106525;1273;22569;-60
2023/01/31 06:01:46;;;;;;;7.90;0.80;;;;;;;2.14;84.25;100116.80;106526;1270;22578;-58
2023/01/31 06:04:17;;;;;;;10.00;1.50;;;;;;;2.15;83.89;100121.34;106586;1272;24187;-58
2023/01/31 06:06:50;;;;;;;19.40;2.00;;;;;;;2.15;83.85;100122.17;106573;1260;24275;-59
2023/01/31 06:09:20;;;;;;;10.80;1.10;;;;;;;2.16;83.67;100124.22;106478;1274;22653;-57
2023/01/31 06:11:51;;;;;;;13.50;1.50;;;;;;;2.17;83.31;100118.55;106445;1267;22530;-56
2023/01/31 06:14:22;;;;;;;14.00;1.30;;;;;;;2.18;82.68;100124.50;106493;1272;25304;-60
2023/01/31 06:16:53;;;;;;;12.20;1.00;;;;;;;2.19;82.03;100136.92;106495;1259;22537;-56
2023/01/31 06:19:24;;;;;;;12.60;0.90;;;;;;;2.21;81.72;100139.00;106662;1260;22526;-58
2023/01/31 06:21:55;;;;;;;16.80;1.50;;;;;;;2.23;80.69;100149.59;106591;1269;22543;-60
2023/01/31 06:24:26;;;;;;;7.40;0.90;;;;;;;2.24;81.48;100153.56;108067;1266;24251;-57
2023/01/31 06:26:56;;;;;;;15.00;1.40;;;;;;;2.25;80.83;100156.71;106536;1274;24275;-60
2023/01/31 06:29:27;;;;;;;11.90;1.20;;;;;;;2.26;79.63;100165.73;106499;1270;25708;-58
2023/01/31 06:31:58;;;;;;;16.80;1.90;;;;;;;2.26;80.69;100164.30;106519;1251;25610;-55
2023/01/31 06:34:29;;;;;;;11.80;1.40;;;;;;;2.25;80.29;100165.05;106539;1272;22531;-58
2023/01/31 06:37:00;;;;;;;15.80;1.60;;;;;;;2.24;80.28;100164.35;107165;1272;26535;-60
2023/01/31 06:39:31;;;;;;;19.20;1.80;;;;;;;2.24;80.36;100163.70;106586;1269;23024;-58
2023/01/31 06:42:02;;;;;;;11.10;1.10;;;;;;;2.24;79.89;100161.59;106562;1274;22557;-57
2023/01/31 06:44:33;;;;;;;9.70;1.00;;;;;;;2.25;79.21;100157.32;106694;1267;22527;-60
2023/01/31 06:47:04;;;;;;;14.50;1.10;;;;;;;2.26;79.65;100160.77;106540;1269;22534;-58
2023/01/31 06:49:35;;;;;;;10.70;1.00;;;;;;;2.25;79.61;100161.03;106550;1274;22633;-58
2023/01/31 06:52:07;;;;;;;15.90;1.90;;;;;;;2.24;79.78;100165.77;106463;1274;22582;-56
2023/01/31 06:54:37;;;;;;;8.60;1.20;;;;;;;2.23;79.69;100166.96;106613;1271;24245;-57
2023/01/31 06:57:08;;;;;;;17.20;2.30;;;;;;;2.23;79.91;100166.80;106580;1262;24258;-57
2023/01/31 06:59:39;;;;;;;15.50;2.20;;;;;;;2.24;79.97;100167.96;106577;1274;22526;-56
2023/01/31 07:02:11;;;;;;;15.90;1.50;;;;;;;2.23;80.08;100168.70;106565;1267;22529;-58
2023/01/31 07:04:42;;;;;;;14.60;1.60;;;;;;;2.22;80.45;100176.75;106710;1274;22529;-57
2023/01/31 07:07:13;;;;;;;10.70;1.20;;;;;;;2.21;80.17;100181.25;106545;1266;23929;-57
2023/01/31 07:09:43;;;;;;;13.70;1.50;;;;;;;2.22;80.01;100189.09;106592;1274;25530;-58
2023/01/31 07:12:14;;;;;;;17.30;1.90;;;;;;;2.23;80.40;100195.05;106611;1260;25469;-57
2023/01/31 07:14:45;;;;;;;21.30;2.40;;;;;;;2.24;80.36;100197.48;106790;1274;22530;-58
2023/01/31 07:17:16;;;;;;;19.60;1.70;;;;;;;2.24;80.53;100196.77;106780;1274;24067;-59
2023/01/31 07:19:47;;;;;;;18.30;1.60;;;;;;;2.25;80.82;100200.61;106907;1274;22548;-60
2023/01/31 07:22:18;;;;;;;14.90;2.10;;;;;;;2.25;81.19;100206.45;106763;1274;25383;-58
2023/01/31 07:24:49;;;;;;;11.20;1.30;;;;;;;2.24;81.06;100210.85;106907;1271;23945;-61
2023/01/31 07:27:20;;;;;;;16.80;2.00;;;;;;;2.24;81.02;100211.33;106978;1269;25715;-58
2023/01/31 07:29:51;;;;;;;14.10;1.00;;;;;;;2.24;81.25;100214.48;106910;1273;24199;-59
2023/01/31 07:32:21;;;;;;;15.30;1.10;;;;;;;2.24;81.39;100222.89;106957;1274;23012;-60
2023/01/31 07:34:52;;;;;;;14.90;1.30;;;;;;;2.25;81.17;100218.24;106889;1271;22740;-59
2023/01/31 07:37:23;;;;;;;13.10;1.20;;;;;;;2.25;81.13;100229.11;106864;1269;24167;-59
2023/01/31 07:39:54;;;;;;;9.20;1.20;;;;;;;2.25;81.19;100232.17;106799;1266;22542;-60
2023/01/31 07:42:25;;;;;;;17.80;2.30;;;;;;;2.25;81.44;100240.19;106898;1269;22542;-59
2023/01/31 07:44:56;;;;;;;18.10;1.30;;;;;;;2.26;81.37;100251.12;106882;1266;25239;-59
2023/01/31 07:47:27;;;;;;;16.40;1.50;;;;;;;2.27;81.38;100253.22;106914;1260;22586;-58
2023/01/31 07:49:57;;;;;;;12.30;1.10;;;;;;;2.28;81.48;100259.17;106756;1260;22549;-59
2023/01/31 07:52:33;;;;;;;15.90;1.20;;;;;;;2.28;81.67;100264.13;106707;1274;23242;-60
2023/01/31 07:55:04;;;;;;;9.80;0.90;;;;;;;2.29;81.65;100260.48;106780;1274;23976;-61
2023/01/31 07:57:34;;;;;;;14.00;1.10;;;;;;;2.31;81.73;100264.16;106781;1274;25508;-57
2023/01/31 08:03:31;;;;;;;16.10;1.20;;;;;;;2.32;81.71;100264.30;106989;1274;23299;-61
2023/01/31 08:05:49;;;;;;;17.30;1.60;;;;;;;2.35;81.97;100262.27;106840;1274;26629;-58
2023/01/31 08:08:20;;;;;;;12.30;1.20;;;;;;;2.36;81.77;100264.28;106763;1274;22551;-59
2023/01/31 08:10:52;;;;;;;7.70;1.40;;;;;;;2.38;81.62;100269.83;106851;1273;24140;-59
2023/01/31 08:13:25;;;;;;;8.90;1.10;;;;;;;2.39;81.58;100268.65;106754;1274;22582;-62
2023/01/31 08:15:56;;;;;;;13.80;1.70;;;;;;;2.41;81.42;100268.46;106778;1273;25167;-59
2023/01/31 08:18:27;;;;;;;13.40;1.80;;;;;;;2.42;81.45;100269.86;106815;1272;22544;-61
2023/01/31 08:21:00;;;;;;;7.50;1.40;;;;;;;2.43;81.14;100265.50;106742;1274;25249;-61
2023/01/31 08:23:31;;;;;;;13.10;1.10;;;;;;;2.45;80.91;100271.42;106920;1260;22530;-59
2023/01/31 08:26:04;;;;;;;14.80;0.80;;;;;;;2.49;80.78;100270.34;106968;1274;22541;-61
2023/01/31 08:28:35;;;;;;;14.00;1.30;;;;;;;2.52;79.83;100275.17;106951;1274;22530;-58
2023/01/31 08:31:06;;;;;;;14.00;1.50;;;;;;;2.56;80.23;100273.04;106862;1272;23146;-59
2023/01/31 08:33:38;;;;;;;15.60;1.40;;;;;;;2.59;80.03;100270.23;106886;1255;22535;-61
2023/01/31 08:36:15;;;;;;;6.70;0.90;;;;;;;2.61;80.41;100267.97;106927;1274;22583;-61
2023/01/31 08:38:46;;;;;;;9.80;0.70;;;;;;;2.66;80.53;100270.64;106864;1273;24198;-61
2023/01/31 08:41:18;;;;;;;12.80;1.70;;;;;;;2.69;80.46;100272.61;106852;1274;22551;-60
2023/01/31 08:43:49;;;;;;;8.20;1.30;;;;;;;2.72;80.55;100278.52;106927;1272;24215;-59
2023/01/31 08:46:20;;;;;;;8.60;1.10;;;;;;;2.73;80.61;100275.30;106817;1272;22535;-61
2023/01/31 08:48:51;;;;;;;13.50;1.20;;;;;;;2.71;80.76;100270.69;106799;1274;25294;-61
2023/01/31 08:51:22;;;;;;;13.50;1.20;;;;;;;2.70;80.99;100276.61;106507;1274;24209;-60
2023/01/31 08:53:54;;;;;;;15.10;1.20;;;;;;;2.72;81.32;100280.91;106494;1272;24241;-59
2023/01/31 08:56:26;;;;;;;12.50;1.30;;;;;;;2.75;81.55;100282.66;106479;1274;25376;-60
2023/01/31 08:58:58;;;;;;;14.00;1.60;;;;;;;2.78;81.35;100282.83;107334;1274;22614;-61
2023/01/31 09:01:29;;;;;;;10.30;0.90;;;;;;;2.81;81.26;100286.48;106658;1260;22531;-60
2023/01/31 09:04:00;;;;;;;14.30;0.80;;;;;;;2.84;81.28;100288.86;106649;1272;24288;-60
2023/01/31 09:06:31;;;;;;;14.40;1.10;;;;;;;2.86;81.37;100298.27;106618;1273;22576;-59
2023/01/31 09:09:02;;;;;;;10.20;1.10;;;;;;;2.87;81.26;100300.52;106648;1272;22544;-59
2023/01/31 09:11:34;;;;;;;17.50;2.20;;;;;;;2.89;81.38;100307.58;106649;1274;22578;-59
2023/01/31 09:14:05;;;;;;;9.70;1.80;;;;;;;2.90;81.24;100313.14;106693;1274;25524;-59
2023/01/31 09:16:36;;;;;;;19.60;2.00;;;;;;;2.91;81.04;100311.93;106782;1274;25372;-57
2023/01/31 09:19:07;;;;;;;20.40;2.20;;;;;;;2.92;81.11;100315.39;106763;1272;24193;-59
2023/01/31 09:21:38;;;;;;;13.60;1.80;;;;;;;2.94;81.12;100317.47;106878;1273;22526;-59
2023/01/31 09:24:11;;;;;;;19.50;2.10;;;;;;;2.95;81.01;100318.16;106625;1251;22524;-58
2023/01/31 09:26:42;;;;;;;14.00;3.60;;;;;;;2.97;81.02;100319.08;106901;1254;22867;-58
2023/01/31 09:29:13;;;;;;;18.10;2.40;;;;;;;2.98;80.85;100321.01;106869;1274;22528;-60
2023/01/31 09:31:44;;;;;;;9.50;0.80;;;;;;;3.00;80.74;100325.86;107163;1272;22534;-59
2023/01/31 09:34:15;;;;;;;9.90;1.70;;;;;;;3.01;80.83;100325.83;106932;1271;22527;-58
2023/01/31 09:36:47;;;;;;;16.40;1.20;;;;;;;3.04;80.22;100326.66;107133;1267;22518;-60
2023/01/31 09:39:18;;;;;;;18.70;2.00;;;;;;;3.05;80.66;100329.99;107189;1260;24209;-61
2023/01/31 09:41:53;;;;;;;18.70;2.10;;;;;;;3.08;80.86;100323.10;107137;1272;22530;-61
2023/01/31 09:44:29;;;;;;;15.30;2.40;;;;;;;3.12;80.99;100329.46;107031;1253;22979;-62
2023/01/31 09:47:10;;;;;;;12.30;1.50;;;;;;;3.16;80.68;100324.51;107056;1274;22524;-62
2023/01/31 09:49:48;;;;;;;12.90;1.10;;;;;;;3.20;80.57;100320.92;107078;1274;22534;-60
2023/01/31 09:52:19;;;;;;;12.10;1.30;;;;;;;3.28;80.42;100321.39;107629;1274;24007;-61
2023/01/31 09:54:50;;;;;;;10.90;1.10;;;;;;;3.36;80.20;100320.83;107102;1274;22927;-61
2023/01/31 09:57:34;;;;;;;10.40;1.00;;;;;;;3.41;80.05;100318.20;107248;1272;26615;-60
2023/01/31 10:00:18;;;;;;;12.60;0.90;;;;;;;3.47;80.43;100311.42;107069;1260;22574;-61
2023/01/31 10:03:18;;;;;;;7.80;2.10;;;;;;;3.51;79.81;100313.45;107182;1267;25246;-60
2023/01/31 10:05:52;;;;;;;12.30;1.50;;;;;;;3.53;79.46;100306.48;107368;1274;24797;-59
2023/01/31 10:08:40;;;;;;;12.70;1.40;;;;;;;3.56;79.92;100304.61;107210;1274;24228;-60
2023/01/31 10:11:16;;;;;;;11.40;1.00;;;;;;;3.59;79.58;100306.17;107233;1273;24211;-62
2023/01/31 10:13:53;;;;;;;16.50;1.10;;;;;;;3.63;79.87;100300.88;107180;1272;22531;-60
2023/01/31 10:16:29;;;;;;;15.20;1.10;;;;;;;3.67;80.04;100305.98;107141;1274;24141;-62
2023/01/31 10:19:04;;;;;;;15.10;1.90;;;;;;;3.70;80.13;100302.14;107149;1269;22590;-62
2023/01/31 10:21:41;;;;;;;9.40;1.10;;;;;;;3.70;80.06;100304.98;107167;1274;22915;-61
2023/01/31 10:24:20;;;;;;;11.90;1.00;;;;;;;3.69;80.60;100307.84;107119;1274;22535;-60
2023/01/31 10:26:55;;;;;;;14.00;1.20;;;;;;;3.67;80.59;100303.70;107039;1274;24382;-61
2023/01/31 10:29:33;;;;;;;11.80;1.00;;;;;;;3.61;80.73;100297.45;107187;1272;22645;-61
2023/01/31 10:32:07;;;;;;;14.30;1.70;;;;;;;3.56;81.35;100294.57;107059;1274;24229;-60
2023/01/31 10:34:45;;;;;;;10.10;1.20;;;;;;;3.55;81.85;100287.43;107191;1274;25429;-60
2023/01/31 10:37:26;;;;;;;9.90;1.10;;;;;;;3.56;81.91;100291.83;107196;1267;22654;-61
2023/01/31 10:40:02;;;;;;;10.40;2.10;;;;;;;3.59;81.49;100286.21;107155;1267;24187;-61
2023/01/31 10:42:35;;;;;;;6.80;1.00;;;;;;;3.64;81.14;100287.75;107076;1274;22531;-61
2023/01/31 10:45:16;;;;;;;13.70;1.50;;;;;;;3.70;81.36;100285.65;107226;1273;22472;-60
2023/01/31 10:47:51;;;;;;;14.30;1.30;;;;;;;3.73;81.09;100287.00;107178;1273;24217;-61
2023/01/31 10:50:32;;;;;;;10.70;1.40;;;;;;;3.73;80.87;100283.36;106983;1267;26629;-61
2023/01/31 10:53:19;;;;;;;16.30;1.30;;;;;;;3.72;80.65;100284.66;107166;1274;22486;-61
2023/01/31 10:55:59;;;;;;;9.20;1.10;;;;;;;3.73;81.56;100281.16;107140;1274;22542;-60
2023/01/31 10:58:31;;;;;;;11.40;1.30;;;;;;;3.75;81.46;100285.13;107286;1266;22516;-59
2023/01/31 11:01:04;;;;;;;13.60;1.40;;;;;;;3.76;81.37;100283.38;107047;1274;22580;-61
2023/01/31 11:03:35;;;;;;;12.80;1.60;;;;;;;3.74;80.94;100284.81;107249;1274;24352;-58
2023/01/31 11:06:07;;;;;;;19.00;1.70;;;;;;;3.73;81.25;100280.05;107052;1266;25925;-61
2023/01/31 11:08:43;;;;;;;12.20;1.10;;;;;;;3.74;81.64;100281.93;107061;1274;24276;-61
2023/01/31 11:11:16;;;;;;;17.50;1.80;;;;;;;3.75;81.81;100276.84;106990;1260;24212;-60
2023/01/31 11:13:58;;;;;;;15.00;1.60;;;;;;;3.76;81.57;100280.77;107098;1274;24025;-59
2023/01/31 11:16:34;;;;;;;21.20;2.20;;;;;;;3.78;81.63;100265.71;107369;1263;24208;-59
2023/01/31 11:19:15;;;;;;;16.70;1.90;;;;;;;3.80;82.07;100265.98;107111;1267;24759;-61
2023/01/31 11:21:51;;;;;;;28.60;7.80;;;;;;;3.82;82.09;100261.99;107029;1267;24294;-60
2023/01/31 11:24:24;;;;;;;16.30;1.90;;;;;;;3.83;82.19;100263.05;107108;1273;22540;-59
2023/01/31 11:26:59;;;;;;;13.80;2.00;;;;;;;3.85;82.26;100260.88;107137;1274;22878;-59
2023/01/31 11:29:32;;;;;;;15.00;1.90;;;;;;;3.87;82.09;100260.35;107146;1274;25593;-59
2023/01/31 11:32:06;;;;;;;14.90;1.80;;;;;;;3.87;82.11;100254.76;107085;1274;22543;-59
2023/01/31 11:34:38;;;;;;;15.10;2.70;;;;;;;3.88;81.90;100244.71;107121;1274;23627;-59
2023/01/31 11:37:16;;;;;;;16.60;1.90;;;;;;;3.90;82.00;100240.49;106990;1268;22639;-61
2023/01/31 11:39:56;;;;;;;18.70;2.70;;;;;;;3.90;81.98;100233.70;107156;1269;22534;-60
2023/01/31 11:42:26;;;;;;;;;;;;;;;3.91;81.99;100226.01;107178;1274;22562;-61
2023/01/31 11:45:02;;;;;;;12.60;1.70;;;;;;;3.92;82.17;100225.60;107022;1274;24231;-61
2023/01/31 11:47:43;;;;;;;16.40;1.40;;;;;;;3.95;82.24;100221.59;107084;1273;24286;-58
2023/01/31 11:50:24;;;;;;;9.90;1.40;;;;;;;3.97;81.97;100215.77;107236;1264;22761;-62
2023/01/31 11:53:00;;;;;;;10.40;1.20;;;;;;;3.99;81.78;100215.70;107112;1274;22786;-60
2023/01/31 11:55:38;;;;;;;15.00;1.30;;;;;;;4.01;81.89;100212.48;107323;1272;22533;-60
2023/01/31 11:58:20;;;;;;;12.20;1.20;;;;;;;4.05;81.94;100207.02;107426;1263;24296;-60
2023/01/31 12:00:58;;;;;;;7.90;1.10;;;;;;;4.06;81.77;100207.70;107111;1272;22551;-61
2023/01/31 12:03:30;;;;;;;10.60;1.30;;;;;;;4.07;81.59;100199.64;107112;1274;23017;-59